createdAt,value
2018-12-21T00:00:38.983Z,13.23
2018-12-21T00:03:07.710Z,15.10
2018-12-21T00:05:36.448Z,16.00
2018-12-21T00:08:05.117Z,15.60
2018-12-21T00:10:33.773Z,20.70
2018-12-21T00:13:02.386Z,22.27
2018-12-21T00:15:30.992Z,18.00
2018-12-21T00:17:59.605Z,17.50
2018-12-21T00:20:28.252Z,13.93
2018-12-21T00:22:56.860Z,23.53
2018-12-21T00:25:25.468Z,18.10
2018-12-21T00:27:54.088Z,19.50
2018-12-21T00:30:22.581Z,10.93
2018-12-21T00:32:56.915Z,4.60
2018-12-21T00:35:30.707Z,2.67
2018-12-21T00:38:05.674Z,3.00
2018-12-21T00:40:39.680Z,3.93
2018-12-21T00:43:15.362Z,2.57
2018-12-21T00:45:47.292Z,1.60
2018-12-21T00:48:16.026Z,4.20
2018-12-21T00:50:44.693Z,2.23
2018-12-21T00:53:13.383Z,2.17
2018-12-21T00:55:42.108Z,4.60
2018-12-21T00:58:10.714Z,2.00
2018-12-21T01:00:39.309Z,2.67
2018-12-21T01:03:08.014Z,2.57
2018-12-21T01:05:36.680Z,6.07
2018-12-21T01:08:05.260Z,1.73
2018-12-21T01:10:33.853Z,1.93
2018-12-21T01:13:02.515Z,1.53
2018-12-21T01:15:31.132Z,2.90
2018-12-21T01:17:59.947Z,2.70
2018-12-21T01:20:28.698Z,2.63
2018-12-21T01:22:57.498Z,3.40
2018-12-21T01:25:26.072Z,0.80
2018-12-21T01:27:54.703Z,2.60
2018-12-21T01:30:23.581Z,1.87
2018-12-21T01:32:52.376Z,2.97
2018-12-21T01:35:21.147Z,0.87
2018-12-21T01:37:49.740Z,0.33
2018-12-21T01:40:18.364Z,1.17
2018-12-21T01:42:46.999Z,0.40
2018-12-21T01:45:15.661Z,0.30
2018-12-21T01:47:44.248Z,0.83
2018-12-21T01:50:12.856Z,0.20
2018-12-21T01:52:41.552Z,2.33
2018-12-21T01:55:10.212Z,1.07
2018-12-21T01:57:38.796Z,0.37
2018-12-21T02:00:08.119Z,0.20
2018-12-21T02:02:36.669Z,0.20
2018-12-21T02:05:05.573Z,0.60
2018-12-21T02:07:34.214Z,0.30
2018-12-21T02:10:03.012Z,1.13
2018-12-21T02:12:31.712Z,0.80
2018-12-21T02:15:00.516Z,2.20
2018-12-21T02:17:29.219Z,10.93
2018-12-21T02:19:57.937Z,11.97
2018-12-21T02:22:26.572Z,8.13
2018-12-21T02:24:55.211Z,10.13
2018-12-21T02:27:23.868Z,4.27
2018-12-21T02:29:52.415Z,7.07
2018-12-21T02:32:21.016Z,4.60
2018-12-21T02:34:49.681Z,7.17
2018-12-21T02:37:18.319Z,12.37
2018-12-21T02:39:47.003Z,12.37
2018-12-21T02:42:15.641Z,15.90
2018-12-21T02:44:44.235Z,24.93
2018-12-21T02:47:12.924Z,10.73
2018-12-21T02:49:41.571Z,13.60
2018-12-21T02:59:40.283Z,10.37
2018-12-21T03:02:08.932Z,15.97
2018-12-21T03:04:37.648Z,18.50
2018-12-21T03:07:06.399Z,17.73
2018-12-21T03:09:52.196Z,16.80
2018-12-21T03:26:33.644Z,17.50
2018-12-21T03:29:02.344Z,23.53
2018-12-21T03:31:31.145Z,13.50
2018-12-21T03:33:59.770Z,19.07
2018-12-21T03:36:28.418Z,14.20
2018-12-21T03:38:57.070Z,13.33
2018-12-21T03:41:25.688Z,15.03
2018-12-21T03:43:54.368Z,12.10
2018-12-21T03:46:23.129Z,16.47
2018-12-21T03:48:51.787Z,17.07
2018-12-21T03:51:20.447Z,10.93
2018-12-21T03:53:49.380Z,14.53
2018-12-21T03:56:18.044Z,21.53
2018-12-21T03:58:46.670Z,11.50
2018-12-21T04:01:15.391Z,27.17
2018-12-21T04:03:44.057Z,15.00
2018-12-21T04:06:12.771Z,14.53
2018-12-21T04:08:41.389Z,14.60
2018-12-21T04:11:10.220Z,21.53
2018-12-21T04:13:38.887Z,14.67
2018-12-21T04:16:07.611Z,11.73
2018-12-21T04:18:36.328Z,17.70
2018-12-21T04:21:04.910Z,21.80
2018-12-21T04:23:33.467Z,13.77
2018-12-21T04:26:02.133Z,23.70
2018-12-21T04:28:30.776Z,24.87
2018-12-21T04:30:59.384Z,25.23
2018-12-21T04:33:28.099Z,26.43
2018-12-21T04:35:56.871Z,23.80
2018-12-21T04:38:25.475Z,40.13
2018-12-21T04:40:54.515Z,20.80
2018-12-21T04:43:23.063Z,36.40
2018-12-21T04:45:51.727Z,29.07
2018-12-21T04:48:20.471Z,32.53
2018-12-21T04:50:49.036Z,25.40
2018-12-21T04:53:17.682Z,15.93
2018-12-21T04:55:46.356Z,21.53
2018-12-21T04:58:14.977Z,16.80
2018-12-21T05:00:43.644Z,17.70
2018-12-21T05:03:12.228Z,22.63
2018-12-21T05:05:40.829Z,18.83
2018-12-21T05:08:09.407Z,24.03
2018-12-21T05:10:37.994Z,31.33
2018-12-21T05:13:06.695Z,26.97
2018-12-21T05:15:35.386Z,27.80
2018-12-21T05:18:04.201Z,32.87
2018-12-21T05:20:32.864Z,48.97
2018-12-21T05:23:01.536Z,46.00
2018-12-21T05:25:30.144Z,47.20
2018-12-21T05:27:58.872Z,44.20
2018-12-21T05:30:27.560Z,55.37
2018-12-21T05:32:56.153Z,53.50
2018-12-21T05:35:24.736Z,38.60
2018-12-21T05:37:53.415Z,31.30
2018-12-21T05:40:21.996Z,31.93
2018-12-21T05:42:50.635Z,26.93
2018-12-21T05:45:19.253Z,36.80
2018-12-21T05:47:47.873Z,41.87
2018-12-21T05:50:16.435Z,25.73
2018-12-21T05:52:45.025Z,35.23
2018-12-21T05:55:13.631Z,41.73
2018-12-21T05:57:42.411Z,35.27
2018-12-21T06:00:11.276Z,35.07
2018-12-21T06:02:39.967Z,32.77
2018-12-21T06:05:08.626Z,32.43
2018-12-21T06:07:37.398Z,32.97
2018-12-21T06:10:06.552Z,30.17
2018-12-21T06:12:35.219Z,31.80
2018-12-21T06:15:04.276Z,57.73
2018-12-21T06:17:32.913Z,61.63
2018-12-21T06:20:01.546Z,55.50
2018-12-21T06:22:30.127Z,58.17
2018-12-21T06:24:58.688Z,44.97
2018-12-21T06:27:27.319Z,47.73
2018-12-21T06:29:56.048Z,44.33
2018-12-21T06:32:24.616Z,41.00
2018-12-21T06:34:53.176Z,45.50
2018-12-21T06:37:21.803Z,49.60
2018-12-21T06:39:50.537Z,46.90
2018-12-21T06:42:40.180Z,44.93
2018-12-21T06:45:08.848Z,43.50
2018-12-21T06:47:37.441Z,54.30
2018-12-21T06:50:06.744Z,32.83
2018-12-21T06:52:35.405Z,38.97
2018-12-21T06:55:04.344Z,47.03
2018-12-21T07:36:10.030Z,59.77
2018-12-21T07:38:38.632Z,66.57
2018-12-21T07:41:07.307Z,62.83
2018-12-21T07:43:35.944Z,64.67
2018-12-21T07:46:04.627Z,49.07
2018-12-21T07:48:33.336Z,46.07
2018-12-21T07:51:01.978Z,55.30
2018-12-21T07:53:35.889Z,64.30
2018-12-21T07:56:01.416Z,55.23
2018-12-21T07:58:30.050Z,57.97
2018-12-21T08:00:58.640Z,51.80
2018-12-21T08:03:27.334Z,54.63
2018-12-21T08:05:55.952Z,57.13
2018-12-21T08:08:24.568Z,44.53
2018-12-21T08:10:53.192Z,55.07
2018-12-21T08:13:21.927Z,57.33
2018-12-21T09:43:43.588Z,51.87
2018-12-21T10:00:30.450Z,43.77
2018-12-21T10:07:12.736Z,53.37
2018-12-21T10:09:52.007Z,48.97
2018-12-21T10:41:05.493Z,61.23
2018-12-21T10:44:26.411Z,61.13
2018-12-21T10:47:29.140Z,48.47
2018-12-21T10:50:22.642Z,46.50
2018-12-21T11:03:55.955Z,34.37
2018-12-21T11:06:58.800Z,35.50
2018-12-21T11:13:25.164Z,42.20
2018-12-21T11:23:12.130Z,44.13
2018-12-21T11:26:20.194Z,38.70
2018-12-21T11:28:56.574Z,41.20
2018-12-21T11:42:27.133Z,48.50
2018-12-21T12:06:33.807Z,40.57
2018-12-21T12:09:23.652Z,38.87
2018-12-21T12:15:30.592Z,46.73
2018-12-21T13:03:50.609Z,32.90
2018-12-21T13:56:06.404Z,42.03
2018-12-21T14:16:35.287Z,45.57
2018-12-21T14:36:51.735Z,29.77
2018-12-21T14:50:13.944Z,48.87
2018-12-21T14:56:12.304Z,42.27
2018-12-21T14:58:41.009Z,44.10
2018-12-21T15:15:16.879Z,36.87
2018-12-21T15:21:33.820Z,22.10
2018-12-21T15:38:04.914Z,46.00
2018-12-21T15:47:58.788Z,58.63
2018-12-21T16:01:46.525Z,54.77
2018-12-21T16:12:04.239Z,36.73
2018-12-21T16:15:07.634Z,42.70
2018-12-21T16:17:58.358Z,53.73
2018-12-21T16:20:27.220Z,47.83
2018-12-21T16:22:56.036Z,51.63
2018-12-21T16:25:24.695Z,54.93
2018-12-21T16:27:53.545Z,36.73
2018-12-21T16:30:22.217Z,56.53
2018-12-21T16:32:50.815Z,35.47
2018-12-21T16:35:19.421Z,35.40
2018-12-21T16:37:48.045Z,48.47
2018-12-21T16:40:16.631Z,58.13
2018-12-21T16:42:45.380Z,68.37
2018-12-21T16:45:14.211Z,47.10
2018-12-21T16:47:43.048Z,44.20
2018-12-21T16:50:13.896Z,49.07
2018-12-21T16:52:42.819Z,61.60
2018-12-21T16:55:11.588Z,47.73
2018-12-21T16:57:40.323Z,56.57
2018-12-21T17:00:15.510Z,51.67
2018-12-21T17:02:44.524Z,43.07
2018-12-21T17:05:13.374Z,44.53
2018-12-21T17:07:44.140Z,40.30
2018-12-21T17:10:18.776Z,48.70
2018-12-21T17:12:47.885Z,47.33
2018-12-21T17:15:16.848Z,52.03
2018-12-21T17:17:46.284Z,41.27
2018-12-21T17:20:15.999Z,54.87
2018-12-21T17:22:45.027Z,47.83
2018-12-21T17:25:15.039Z,43.33
2018-12-21T17:27:43.890Z,48.00
2018-12-21T17:30:13.473Z,34.70
2018-12-21T17:32:42.275Z,36.23
2018-12-21T17:35:31.969Z,40.40
2018-12-21T17:38:00.947Z,31.40
2018-12-21T17:40:29.548Z,50.43
2018-12-21T17:42:58.440Z,44.33
2018-12-21T17:45:27.400Z,47.87
2018-12-21T17:47:57.060Z,40.43
2018-12-21T17:50:25.897Z,39.50
2018-12-21T17:52:56.736Z,42.17
2018-12-21T17:55:25.582Z,41.27
2018-12-21T17:57:54.252Z,29.97
2018-12-21T18:00:22.855Z,28.23
2018-12-21T18:02:53.767Z,25.03
2018-12-21T18:05:23.286Z,31.23
2018-12-21T18:07:52.307Z,34.20
2018-12-21T18:10:21.012Z,28.97
2018-12-21T18:12:49.723Z,30.10
2018-12-21T18:15:18.424Z,39.97
2018-12-21T18:17:47.236Z,34.83
2018-12-21T18:20:17.321Z,44.23
2018-12-21T18:22:46.182Z,46.70
2018-12-21T18:25:20.555Z,41.60
2018-12-21T18:30:56.443Z,27.40
2018-12-21T18:33:25.779Z,48.77
2018-12-21T18:35:54.607Z,40.87
2018-12-21T18:38:26.048Z,38.87
2018-12-21T18:40:54.736Z,45.70
2018-12-21T18:43:23.392Z,44.27
2018-12-21T18:45:52.103Z,34.33
2018-12-21T18:48:20.932Z,35.87
2018-12-21T18:50:49.717Z,44.23
2018-12-21T18:53:18.386Z,43.00
2018-12-21T18:55:49.198Z,46.40
2018-12-21T18:58:17.836Z,36.83
2018-12-21T19:00:46.494Z,41.13
2018-12-21T19:03:15.180Z,38.87
2018-12-21T19:05:43.824Z,28.40
2018-12-21T19:08:12.588Z,42.17
2018-12-21T19:10:41.284Z,52.17
2018-12-21T19:13:10.025Z,36.30
2018-12-21T19:15:39.015Z,35.27
2018-12-21T19:18:07.924Z,33.77
2018-12-21T19:20:36.579Z,28.07
2018-12-21T19:23:05.281Z,35.60
2018-12-21T19:25:33.891Z,33.93
2018-12-21T19:28:02.523Z,32.70
2018-12-21T19:30:31.138Z,29.77
2018-12-21T19:32:59.739Z,23.80
2018-12-21T19:35:29.979Z,23.23
2018-12-21T19:37:58.855Z,37.80
2018-12-21T19:40:27.474Z,31.67
2018-12-21T19:42:56.119Z,31.40
2018-12-21T19:45:24.764Z,30.83
2018-12-21T19:47:53.421Z,32.43
2018-12-21T19:50:22.080Z,38.70
2018-12-21T19:52:50.771Z,42.07
2018-12-21T19:56:02.005Z,47.90
2018-12-21T19:58:30.627Z,39.87
2018-12-21T20:00:59.236Z,37.83
2018-12-21T20:03:27.811Z,43.63
2018-12-21T20:05:56.388Z,39.07
2018-12-21T20:08:27.169Z,34.53
2018-12-21T20:10:55.659Z,31.47
2018-12-21T20:13:24.306Z,36.00
2018-12-21T20:15:52.871Z,49.43
2018-12-21T20:18:21.629Z,40.40
2018-12-21T20:20:50.438Z,54.73
2018-12-21T20:23:19.873Z,51.47
2018-12-21T20:25:48.796Z,29.70
2018-12-21T20:28:17.633Z,48.67
2018-12-21T20:30:46.357Z,38.07
2018-12-21T20:33:16.067Z,41.30
2018-12-21T20:35:44.767Z,44.07
2018-12-21T20:38:21.188Z,39.57
2018-12-21T20:40:44.671Z,41.00
2018-12-21T20:43:13.478Z,47.13
2018-12-21T20:45:42.288Z,39.53
2018-12-21T20:48:11.181Z,28.83
2018-12-21T20:50:39.855Z,34.77
2018-12-21T20:53:08.460Z,34.23
2018-12-21T20:55:37.105Z,43.07
2018-12-21T20:58:14.592Z,44.27
2018-12-21T21:00:43.267Z,36.57
2018-12-21T21:03:11.883Z,48.27
2018-12-21T21:05:40.575Z,44.67
2018-12-21T21:08:09.259Z,28.97
2018-12-21T21:10:37.912Z,30.30
2018-12-21T21:13:07.155Z,31.70
2018-12-21T21:15:36.240Z,33.77
2018-12-21T21:18:04.891Z,44.80
2018-12-21T21:20:33.673Z,36.30
2018-12-21T21:23:02.336Z,47.93
2018-12-21T21:25:30.971Z,28.90
2018-12-21T21:27:59.587Z,41.10
2018-12-21T21:30:29.592Z,36.47
2018-12-21T21:32:58.258Z,40.57
2018-12-21T21:35:26.895Z,45.53
2018-12-21T21:37:55.477Z,34.73
2018-12-21T21:40:24.073Z,26.83
2018-12-21T21:42:57.552Z,38.23
2018-12-21T21:45:23.421Z,33.43
2018-12-21T21:47:52.059Z,42.90
2018-12-21T21:50:20.655Z,40.33
2018-12-21T21:52:49.309Z,42.50
2018-12-21T21:55:18.065Z,42.83
2018-12-21T21:57:46.655Z,38.40
2018-12-21T22:00:15.501Z,38.57
2018-12-21T22:02:44.313Z,26.27
2018-12-21T22:05:12.943Z,35.43
2018-12-21T22:07:41.716Z,43.60
2018-12-21T22:10:11.599Z,28.63
2018-12-21T22:12:40.276Z,31.57
2018-12-21T22:15:10.108Z,44.33
2018-12-21T22:17:38.759Z,36.83
2018-12-21T22:20:12.462Z,29.23
2018-12-21T22:22:41.063Z,38.63
2018-12-21T22:25:09.654Z,29.97
2018-12-21T22:27:38.264Z,39.93
2018-12-21T22:30:09.325Z,29.27
2018-12-21T22:45:47.743Z,24.43
2018-12-21T22:50:55.539Z,27.30
2018-12-21T22:53:24.379Z,23.53
2018-12-21T22:55:52.971Z,17.87
2018-12-21T22:58:21.737Z,25.40
2018-12-21T23:00:50.377Z,30.60
2018-12-21T23:03:18.953Z,20.70
2018-12-21T23:05:47.533Z,22.10
2018-12-21T23:08:16.159Z,31.70
2018-12-21T23:10:44.791Z,20.73
2018-12-21T23:13:13.411Z,30.33
2018-12-21T23:15:41.997Z,25.97
2018-12-21T23:18:10.672Z,30.07
2018-12-21T23:20:39.312Z,30.43
2018-12-21T23:23:07.954Z,31.70
2018-12-21T23:25:36.618Z,35.73
2018-12-21T23:28:05.469Z,38.23
2018-12-21T23:30:34.149Z,29.73
2018-12-21T23:33:02.923Z,35.60
2018-12-21T23:35:31.676Z,28.63
2018-12-21T23:38:00.254Z,34.00
2018-12-21T23:40:28.820Z,45.17
2018-12-21T23:42:57.376Z,40.50
2018-12-21T23:45:25.976Z,28.50
2018-12-21T23:47:54.560Z,37.20
2018-12-21T23:50:23.175Z,32.97
2018-12-21T23:52:51.960Z,26.37
2018-12-21T23:55:20.663Z,37.97
2018-12-21T23:57:49.288Z,32.27
